Time;durP1;ratioP1;P1;durP2;ratioP2;P2;SDS_P1;SDS_P2;PMS_P1;PMS_P2;Temp;Humidity;BMP_temperature;BMP_pressure;BME280_temperature;BME280_humidity;BME280_pressure;Samples;Min_cycle;Max_cycle;Signal;HPM_P1;HPM_P2
2022/03/18 00:00:18;;;;;;;26.65;13.23;;;;;;;6.67;100.00;100672.16;5013484;28;20156;-85
2022/03/18 00:02:45;;;;;;;22.50;13.98;;;;;;;6.64;100.00;100669.72;5003510;28;20050;-86
2022/03/18 00:05:12;;;;;;;24.13;13.77;;;;;;;6.62;100.00;100661.72;5012173;28;20049;-86
2022/03/18 00:07:40;;;;;;;21.35;12.65;;;;;;;6.78;100.00;100683.00;5012622;28;20049;-86
2022/03/18 00:10:09;;;;;;;24.48;13.20;;;;;;;6.52;100.00;100655.38;5013290;28;20107;-86
2022/03/18 00:12:37;;;;;;;22.10;12.75;;;;;;;6.55;100.00;100674.03;5012743;28;20053;-85
2022/03/18 00:15:04;;;;;;;21.65;13.15;;;;;;;6.53;100.00;100671.44;5003090;28;20050;-85
2022/03/18 00:17:31;;;;;;;23.08;12.70;;;;;;;6.43;100.00;100664.16;5012422;28;20056;-85
2022/03/18 00:19:58;;;;;;;18.92;11.25;;;;;;;6.38;100.00;100676.22;5010987;28;20478;-86
2022/03/18 00:22:24;;;;;;;21.67;13.00;;;;;;;6.55;100.00;100687.53;5012146;28;20255;-86
2022/03/18 00:24:51;;;;;;;23.15;12.50;;;;;;;6.56;100.00;100678.44;5012583;28;20133;-85
2022/03/18 00:27:19;;;;;;;22.92;12.88;;;;;;;6.57;100.00;100677.47;5012089;28;20046;-85
2022/03/18 00:29:46;;;;;;;21.58;11.77;;;;;;;6.54;100.00;100678.56;5014203;28;20057;-86
2022/03/18 00:32:12;;;;;;;20.83;11.77;;;;;;;6.57;100.00;100679.31;5020051;28;20057;-86
2022/03/18 00:34:39;;;;;;;23.42;13.20;;;;;;;6.57;100.00;100672.06;5011660;28;20140;-85
2022/03/18 00:37:07;;;;;;;20.67;13.02;;;;;;;6.64;100.00;100677.81;5012497;28;20136;-85
2022/03/18 00:39:33;;;;;;;17.67;11.48;;;;;;;6.61;100.00;100688.88;5012175;28;20046;-86
2022/03/18 00:42:00;;;;;;;21.73;12.18;;;;;;;6.43;100.00;100667.75;5012575;28;20140;-86
2022/03/18 00:44:28;;;;;;;23.88;12.57;;;;;;;6.58;100.00;100691.81;5011580;28;20500;-85
2022/03/18 00:46:55;;;;;;;20.98;11.30;;;;;;;6.50;100.00;100671.69;5012301;28;20049;-85
2022/03/18 00:52:06;;;;;;;21.50;12.95;;;;;;;6.47;100.00;100688.13;5005934;28;20508;-85
2022/03/18 00:54:34;;;;;;;22.50;12.77;;;;;;;6.58;100.00;100686.41;5012235;28;20474;-85
2022/03/18 00:57:01;;;;;;;23.20;12.57;;;;;;;6.48;100.00;100680.91;5008750;28;20133;-85
2022/03/18 00:59:29;;;;;;;20.40;12.32;;;;;;;6.53;100.00;100694.88;5011388;28;20042;-85
2022/03/18 01:01:57;;;;;;;23.52;12.85;;;;;;;6.53;100.00;100697.59;5026089;28;20495;-85
2022/03/18 01:04:25;;;;;;;21.30;12.00;;;;;;;6.36;100.00;100672.75;5016991;28;20080;-86
2022/03/18 01:06:52;;;;;;;21.60;13.07;;;;;;;6.54;100.00;100693.91;5010606;28;20048;-86
2022/03/18 01:09:20;;;;;;;22.98;12.05;;;;;;;6.41;100.00;100674.25;5009462;28;20116;-86
2022/03/18 01:11:47;;;;;;;19.27;10.90;;;;;;;6.41;100.00;100685.06;5012484;28;20137;-86
2022/03/18 01:14:13;;;;;;;22.80;11.95;;;;;;;6.49;100.00;100701.53;5011663;28;20054;-85
2022/03/18 01:16:44;;;;;;;18.80;11.10;;;;;;;6.40;100.00;100686.03;4998330;28;20061;-86
2022/03/18 01:19:11;;;;;;;21.85;10.88;;;;;;;6.43;100.00;100702.00;5027092;28;20493;-85
2022/03/18 01:21:37;;;;;;;25.33;12.43;;;;;;;6.42;100.00;100701.16;5021802;28;20053;-86
2022/03/18 01:24:05;;;;;;;20.75;11.13;;;;;;;6.35;100.00;100692.69;5009903;28;20054;-86
2022/03/18 01:26:31;;;;;;;22.95;13.25;;;;;;;6.40;100.00;100700.41;5009995;28;20049;-86
2022/03/18 01:28:58;;;;;;;19.00;10.38;;;;;;;6.34;100.00;100684.69;5005026;28;20046;-86
2022/03/18 01:31:30;;;;;;;21.88;11.95;;;;;;;6.19;100.00;100674.09;5012959;28;20486;-86
2022/03/18 01:33:58;;;;;;;17.80;10.65;;;;;;;6.38;100.00;100700.53;5013381;28;20061;-85
2022/03/18 01:36:28;;;;;;;21.05;12.18;;;;;;;6.30;100.00;100694.00;5010954;28;20054;-85
2022/03/18 01:38:55;;;;;;;15.68;9.65;;;;;;;6.30;100.00;100691.31;5011645;28;20100;-86
2022/03/18 01:41:23;;;;;;;17.75;11.13;;;;;;;6.16;100.00;100685.13;5013318;28;20512;-85
2022/03/18 01:43:50;;;;;;;17.45;11.07;;;;;;;6.34;100.00;100698.19;5022558;28;20059;-86
2022/03/18 01:46:18;;;;;;;21.27;11.50;;;;;;;6.37;100.00;100698.81;5012800;28;20046;-85
2022/03/18 01:48:46;;;;;;;20.42;11.88;;;;;;;6.25;100.00;100690.78;5031738;28;20424;-85
2022/03/18 01:51:16;;;;;;;20.80;11.65;;;;;;;6.22;100.00;100686.50;5029421;28;20413;-85
2022/03/18 01:53:43;;;;;;;;;;;;;;;6.36;100.00;100707.03;5009965;28;20525;-85
2022/03/18 01:56:10;;;;;;;19.02;11.10;;;;;;;6.33;100.00;100694.63;5014271;28;19988;-85
2022/03/18 01:58:37;;;;;;;20.52;11.25;;;;;;;6.30;100.00;100704.81;5011953;28;20054;-85
2022/03/18 02:01:04;;;;;;;18.00;11.02;;;;;;;6.28;100.00;100693.25;5011587;28;20053;-85
2022/03/18 02:03:31;;;;;;;22.55;11.18;;;;;;;6.31;100.00;100702.00;5012165;28;20046;-85
2022/03/18 02:05:58;;;;;;;17.38;10.50;;;;;;;6.20;100.00;100702.84;5010820;28;20052;-86
2022/03/18 02:08:26;;;;;;;17.30;10.02;;;;;;;6.16;100.00;100709.44;5011001;28;20054;-85
2022/03/18 02:10:53;;;;;;;21.73;11.55;;;;;;;6.23;100.00;100699.00;5017277;28;20052;-85
2022/03/18 02:13:19;;;;;;;21.30;10.68;;;;;;;6.15;100.00;100696.06;5010945;28;20049;-85
2022/03/18 02:15:46;;;;;;;17.85;10.50;;;;;;;6.16;100.00;100682.44;5012020;28;20061;-85
2022/03/18 02:18:12;;;;;;;16.60;10.23;;;;;;;6.30;100.00;100702.13;5011504;28;20482;-85
2022/03/18 02:20:39;;;;;;;19.77;11.63;;;;;;;6.25;100.00;100697.06;5017708;28;20486;-85
2022/03/18 02:23:07;;;;;;;22.42;12.27;;;;;;;6.35;100.00;100708.00;5010053;28;20065;-85
2022/03/18 02:25:34;;;;;;;19.98;11.70;;;;;;;6.27;100.00;100703.19;5024777;28;20049;-85
2022/03/18 02:28:03;;;;;;;19.52;10.65;;;;;;;6.14;100.00;100697.91;5032855;28;20050;-86
2022/03/18 02:30:33;;;;;;;21.33;10.38;;;;;;;6.16;100.00;100701.34;5042413;28;20063;-85
2022/03/18 02:33:00;;;;;;;21.58;11.18;;;;;;;6.31;100.00;100723.59;5037552;28;20056;-85
2022/03/18 02:35:29;;;;;;;18.52;9.93;;;;;;;6.26;100.00;100720.38;5049897;28;20471;-85
2022/03/18 02:37:56;;;;;;;18.73;10.60;;;;;;;6.25;100.00;100718.69;5043148;28;20049;-85
2022/03/18 02:40:25;;;;;;;18.13;11.13;;;;;;;6.21;100.00;100714.47;5033057;28;20042;-86
2022/03/18 02:42:52;;;;;;;17.45;10.25;;;;;;;6.26;100.00;100725.78;5035350;28;20049;-86
2022/03/18 02:45:18;;;;;;;18.23;10.40;;;;;;;6.31;100.00;100728.16;5035453;28;20521;-86
2022/03/18 02:47:45;;;;;;;18.45;9.02;;;;;;;6.10;100.00;100715.31;5027911;28;20399;-86
2022/03/18 02:50:12;;;;;;;17.73;10.00;;;;;;;6.12;100.00;100715.19;5026916;28;20042;-86
2022/03/18 02:52:38;;;;;;;20.27;10.15;;;;;;;6.14;100.00;100721.34;5014328;28;20049;-86
2022/03/18 02:55:06;;;;;;;20.17;11.30;;;;;;;6.19;100.00;100724.56;5021678;28;20053;-86
2022/03/18 02:57:34;;;;;;;19.52;9.80;;;;;;;6.17;100.00;100726.50;5015246;28;20515;-86
2022/03/18 03:00:01;;;;;;;17.83;9.85;;;;;;;5.98;100.00;100717.13;5017521;28;20054;-85
2022/03/18 03:02:28;;;;;;;18.30;8.95;;;;;;;6.00;100.00;100719.69;5014473;28;20045;-86
2022/03/18 03:10:26;;;;;;;16.65;10.50;;;;;;;6.14;100.00;100727.63;5018850;28;20073;-86
2022/03/18 03:12:53;;;;;;;;;;;;;;;6.15;100.00;100741.97;5022589;28;20145;-86
2022/03/18 03:15:20;;;;;;;20.50;10.82;;;;;;;6.12;100.00;100734.94;5019816;28;19948;-86
2022/03/18 03:17:47;;;;;;;18.80;9.48;;;;;;;6.17;100.00;100756.19;5034976;28;20489;-86
2022/03/18 03:20:15;;;;;;;15.32;9.18;;;;;;;6.10;100.00;100746.88;5035014;28;20053;-86
2022/03/18 03:22:41;;;;;;;16.05;9.40;;;;;;;6.02;100.00;100751.00;5020753;28;20061;-86
2022/03/18 03:25:08;;;;;;;18.30;10.40;;;;;;;6.10;100.00;100768.47;5016223;28;20054;-85
2022/03/18 03:27:35;;;;;;;19.63;10.30;;;;;;;6.03;100.00;100774.31;5015120;28;20050;-85
2022/03/18 03:30:08;;;;;;;15.73;9.30;;;;;;;6.09;100.00;100773.00;5024678;28;20460;-85
2022/03/18 03:32:35;;;;;;;18.73;10.00;;;;;;;6.00;100.00;100769.13;5032583;28;20058;-86
2022/03/18 03:35:02;;;;;;;17.38;9.27;;;;;;;6.00;100.00;100765.59;5014935;28;20057;-86
2022/03/18 03:37:29;;;;;;;18.67;10.82;;;;;;;6.06;100.00;100778.63;5014439;28;20054;-86
2022/03/18 03:39:56;;;;;;;16.58;9.70;;;;;;;5.97;100.00;100755.88;5014017;28;20489;-86
2022/03/18 03:42:23;;;;;;;19.15;9.30;;;;;;;5.91;100.00;100761.72;5018554;28;20417;-86
2022/03/18 03:44:50;;;;;;;16.73;10.32;;;;;;;6.05;100.00;100781.44;5020928;28;20054;-86
2022/03/18 03:47:18;;;;;;;17.42;10.82;;;;;;;6.00;100.00;100779.09;5011995;28;20046;-86
2022/03/18 03:49:45;;;;;;;17.70;10.65;;;;;;;5.94;100.00;100782.22;5014341;28;20042;-86
2022/03/18 03:52:12;;;;;;;18.75;10.23;;;;;;;5.89;100.00;100771.78;5012729;28;20489;-86
2022/03/18 03:54:40;;;;;;;18.60;10.95;;;;;;;5.88;100.00;100758.41;5014610;28;20409;-86
2022/03/18 03:57:07;;;;;;;22.23;10.02;;;;;;;5.80;100.00;100761.69;5031035;28;20127;-86
2022/03/18 03:59:34;;;;;;;20.63;10.15;;;;;;;5.90;100.00;100796.91;5028515;28;20108;-86
2022/03/18 04:02:02;;;;;;;17.83;11.25;;;;;;;5.83;100.00;100772.25;5032167;28;20050;-86
2022/03/18 04:04:31;;;;;;;22.13;11.60;;;;;;;5.82;100.00;100770.50;5021240;28;20056;-86
2022/03/18 04:06:58;;;;;;;20.33;10.82;;;;;;;5.74;100.00;100771.09;5012821;28;20054;-86
2022/03/18 04:09:25;;;;;;;19.45;11.30;;;;;;;5.85;100.00;100802.66;5025998;28;20050;-86
2022/03/18 04:11:52;;;;;;;18.05;9.20;;;;;;;5.83;100.00;100805.47;5014070;28;20050;-86
2022/03/18 04:14:18;;;;;;;17.50;10.90;;;;;;;5.87;100.00;100794.44;5013259;28;20054;-86
2022/03/18 04:16:45;;;;;;;19.25;10.80;;;;;;;5.70;100.00;100784.91;5029296;28;20356;-86
2022/03/18 04:19:12;;;;;;;21.38;11.88;;;;;;;5.87;100.00;100814.19;5032960;28;20481;-86
2022/03/18 04:21:41;;;;;;;19.95;10.60;;;;;;;5.76;100.00;100793.41;5023067;28;20056;-86
2022/03/18 04:24:08;;;;;;;17.88;10.55;;;;;;;5.84;100.00;100811.72;5010883;28;20073;-87
2022/03/18 04:26:35;;;;;;;22.52;12.05;;;;;;;5.81;100.00;100817.34;5017815;28;20072;-85
2022/03/18 04:29:01;;;;;;;19.92;11.73;;;;;;;5.61;100.00;100800.78;5028741;28;20049;-86
2022/03/18 04:31:28;;;;;;;21.42;10.27;;;;;;;5.73;100.00;100827.88;5029673;28;20511;-86
2022/03/18 04:33:55;;;;;;;20.73;10.43;;;;;;;5.61;100.00;100829.63;5017221;28;20060;-86
2022/03/18 04:36:21;;;;;;;21.73;11.35;;;;;;;5.68;100.00;100831.75;5013334;28;20046;-86
2022/03/18 04:38:49;;;;;;;22.35;11.43;;;;;;;5.67;100.00;100831.88;5012741;28;20499;-86
2022/03/18 04:41:16;;;;;;;19.88;11.60;;;;;;;5.64;100.00;100818.59;5016630;28;20042;-86
2022/03/18 04:43:42;;;;;;;19.33;9.32;;;;;;;5.58;100.00;100824.44;5012511;28;20540;-87
2022/03/18 04:46:09;;;;;;;19.70;10.10;;;;;;;5.68;100.00;100825.50;5011828;28;20072;-86
2022/03/18 04:48:36;;;;;;;19.98;11.02;;;;;;;5.64;100.00;100832.94;5012620;28;20528;-86
2022/03/18 04:51:02;;;;;;;15.85;9.10;;;;;;;5.62;100.00;100834.91;5015770;28;20072;-86
2022/03/18 04:53:29;;;;;;;19.08;11.63;;;;;;;5.68;100.00;100839.00;5030779;28;20069;-86
2022/03/18 04:55:57;;;;;;;19.60;11.30;;;;;;;5.71;100.00;100840.63;5012202;28;20074;-86
2022/03/18 04:58:24;;;;;;;24.20;11.98;;;;;;;5.73;100.00;100844.91;5012671;28;20042;-86
2022/03/18 05:00:50;;;;;;;19.55;10.85;;;;;;;5.59;100.00;100834.28;5015663;28;20489;-86
2022/03/18 05:03:17;;;;;;;19.98;11.18;;;;;;;5.66;100.00;100847.22;5014801;28;20480;-85
2022/03/18 05:05:43;;;;;;;23.00;10.68;;;;;;;5.63;100.00;100844.72;5012637;28;20073;-86
2022/03/18 05:08:10;;;;;;;18.73;11.13;;;;;;;5.65;100.00;100845.47;5012714;28;20492;-90
2022/03/18 05:10:37;;;;;;;19.73;11.20;;;;;;;5.72;100.00;100856.69;5025017;28;20213;-86
2022/03/18 05:13:05;;;;;;;22.55;11.25;;;;;;;5.63;100.00;100850.13;5026371;28;20046;-86
2022/03/18 05:15:32;;;;;;;18.95;10.00;;;;;;;5.66;100.00;100858.00;5025057;28;20038;-87
2022/03/18 05:17:59;;;;;;;20.25;11.52;;;;;;;5.52;100.00;100859.97;5013306;28;20493;-87
2022/03/18 05:20:26;;;;;;;19.75;11.15;;;;;;;5.67;100.00;100870.53;5026877;28;20136;-87
2022/03/18 05:22:52;;;;;;;19.35;12.05;;;;;;;5.70;100.00;100879.38;5031671;28;20045;-87
2022/03/18 05:25:21;;;;;;;21.95;12.60;;;;;;;5.73;100.00;100873.75;5016559;28;20160;-87
2022/03/18 05:27:49;;;;;;;22.17;12.35;;;;;;;5.73;100.00;100871.91;5012384;28;20058;-87
2022/03/18 05:30:18;;;;;;;21.90;11.48;;;;;;;5.64;100.00;100868.03;5015570;28;20096;-87
2022/03/18 05:32:45;;;;;;;27.85;12.75;;;;;;;5.85;100.00;100884.50;5011594;28;20146;-88
2022/03/18 05:35:18;;;;;;;25.00;12.85;;;;;;;5.78;100.00;100885.06;5013198;28;20081;-88
2022/03/18 05:37:48;;;;;;;21.48;11.20;;;;;;;5.60;100.00;100865.66;5024941;28;20452;-87
2022/03/18 05:40:18;;;;;;;20.58;11.85;;;;;;;5.74;100.00;100878.19;5025942;28;20509;-88
2022/03/18 05:42:45;;;;;;;22.02;13.32;;;;;;;5.77;100.00;100881.50;5029693;28;20513;-88
2022/03/18 05:45:12;;;;;;;23.08;12.63;;;;;;;5.84;100.00;100887.31;5014800;28;20133;-87
2022/03/18 05:47:41;;;;;;;22.45;13.48;;;;;;;5.80;100.00;100893.91;5014603;28;20140;-88
2022/03/18 05:50:15;;;;;;;26.80;13.90;;;;;;;5.70;100.00;100869.44;5022541;28;20054;-87
2022/03/18 05:52:41;;;;;;;24.15;14.07;;;;;;;5.80;100.00;100886.69;5015462;28;20436;-87
2022/03/18 05:55:11;;;;;;;22.98;13.45;;;;;;;5.94;100.00;100898.31;5017650;28;20049;-87
2022/03/18 05:57:37;;;;;;;25.20;13.68;;;;;;;5.94;100.00;100884.81;5033821;28;20054;-88
2022/03/18 06:00:08;;;;;;;30.77;14.70;;;;;;;5.83;100.00;100885.59;5025593;28;20046;-87
2022/03/18 06:02:35;;;;;;;32.53;13.75;;;;;;;5.79;100.00;100887.63;5018309;28;20058;-88
2022/03/18 06:05:04;;;;;;;27.70;15.05;;;;;;;5.99;100.00;100910.53;5010078;28;20052;-88
2022/03/18 06:07:30;;;;;;;25.25;14.20;;;;;;;5.83;100.00;100889.16;5007937;28;20223;-87
2022/03/18 06:12:44;;;;;;;26.70;14.05;;;;;;;5.96;100.00;100907.13;5012349;28;20061;-87
2022/03/18 06:15:14;;;;;;;26.50;13.93;;;;;;;5.99;100.00;100915.94;5011584;28;20486;-87
2022/03/18 06:17:41;;;;;;;;;;;;;;;5.99;100.00;100915.94;5011885;28;20057;-87
2022/03/18 06:20:10;;;;;;;31.17;15.15;;;;;;;5.96;100.00;100918.81;5011245;28;20382;-86
2022/03/18 06:22:38;;;;;;;29.45;15.40;;;;;;;5.88;100.00;100902.31;5022483;28;20516;-87
2022/03/18 06:25:06;;;;;;;34.13;17.27;;;;;;;6.11;100.00;100938.47;5017704;28;20132;-87
2022/03/18 06:27:33;;;;;;;30.17;15.70;;;;;;;6.01;100.00;100922.06;5016975;28;20488;-87
2022/03/18 06:29:59;;;;;;;32.17;14.93;;;;;;;6.11;100.00;100933.06;5014240;28;20056;-87
2022/03/18 06:32:26;;;;;;;30.02;15.00;;;;;;;6.05;100.00;100930.78;5010736;28;20508;-87
2022/03/18 06:34:55;;;;;;;32.97;16.58;;;;;;;6.03;100.00;100924.66;5012080;28;20096;-87
2022/03/18 06:37:27;;;;;;;31.35;15.68;;;;;;;6.08;100.00;100916.22;5014067;28;20045;-88
2022/03/18 06:39:54;;;;;;;38.08;16.88;;;;;;;6.25;100.00;100939.25;5010609;28;20049;-87
2022/03/18 06:42:20;;;;;;;34.03;15.93;;;;;;;6.30;100.00;100956.00;5019687;28;20049;-87
2022/03/18 06:44:47;;;;;;;34.05;15.50;;;;;;;6.22;100.00;100951.19;5009961;28;20077;-87
2022/03/18 06:47:17;;;;;;;28.90;15.48;;;;;;;6.10;100.00;100944.84;5012741;28;20056;-87
2022/03/18 06:49:46;;;;;;;31.70;15.88;;;;;;;6.19;100.00;100946.00;5012714;28;20046;-87
2022/03/18 06:52:13;;;;;;;34.72;15.77;;;;;;;6.28;100.00;100939.91;5011764;28;20060;-87
2022/03/18 06:54:45;;;;;;;32.50;15.48;;;;;;;6.33;100.00;100953.09;5011401;28;20105;-87
2022/03/18 06:57:12;;;;;;;29.08;15.52;;;;;;;6.14;100.00;100929.25;5008167;28;20077;-88
2022/03/18 06:59:40;;;;;;;29.55;14.65;;;;;;;6.33;100.00;100943.13;5009032;28;20080;-87
2022/03/18 07:02:09;;;;;;;29.77;16.52;;;;;;;6.33;100.00;100939.56;5010977;28;20042;-88
2022/03/18 07:04:36;;;;;;;32.00;16.83;;;;;;;6.49;100.00;100945.56;5012376;28;20145;-85
2022/03/18 07:07:03;;;;;;;29.58;14.82;;;;;;;6.49;100.00;100947.41;5012638;28;20049;-85
2022/03/18 07:09:33;;;;;;;31.20;15.82;;;;;;;6.55;100.00;100944.25;5010738;28;20049;-85
2022/03/18 07:12:01;;;;;;;34.25;18.00;;;;;;;6.57;100.00;100941.44;5010507;28;20489;-85
2022/03/18 07:14:28;;;;;;;34.00;17.55;;;;;;;6.64;100.00;100970.56;5009169;28;20073;-85
2022/03/18 07:19:39;;;;;;;31.73;16.50;;;;;;;6.76;100.00;100984.13;5012149;28;20073;-84
2022/03/18 07:22:06;;;;;;;35.03;17.88;;;;;;;6.83;100.00;100982.69;5010891;28;20050;-84
2022/03/18 07:24:32;;;;;;;36.67;17.50;;;;;;;6.85;100.00;100986.13;5013470;28;20045;-85
2022/03/18 07:27:09;;;;;;;35.80;18.42;;;;;;;6.86;100.00;100988.72;5016075;28;20045;-88
2022/03/18 07:29:36;;;;;;;36.35;17.05;;;;;;;6.86;100.00;100958.13;5016035;28;20057;-88
2022/03/18 07:32:03;;;;;;;37.13;18.55;;;;;;;6.89;100.00;100993.03;5015875;28;20531;-89
2022/03/18 07:34:33;;;;;;;37.03;19.20;;;;;;;6.82;100.00;100972.84;5017375;28;20050;-92
2022/03/18 07:37:04;;;;;;;40.65;19.10;;;;;;;6.82;100.00;100970.13;5019274;28;20057;-93
2022/03/18 07:39:31;;;;;;;36.00;18.63;;;;;;;7.00;100.00;100982.28;5019805;28;20076;-94
2022/03/18 07:41:58;;;;;;;33.42;18.23;;;;;;;7.01;100.00;100970.47;5019108;28;20053;-94
2022/03/18 07:44:26;;;;;;;38.47;19.10;;;;;;;7.14;100.00;100997.44;5019264;28;20046;-94
2022/03/18 07:46:53;;;;;;;38.85;19.83;;;;;;;7.19;100.00;100989.81;5019443;28;20128;-93
2022/03/18 07:49:20;;;;;;;39.08;20.80;;;;;;;7.13;100.00;100986.75;5018636;28;20046;-93
2022/03/18 07:51:47;;;;;;;38.53;19.33;;;;;;;7.13;100.00;100994.84;5018103;28;20096;-92
2022/03/18 07:54:14;;;;;;;36.13;18.20;;;;;;;7.21;100.00;101004.13;5018313;28;20108;-94
2022/03/18 07:56:41;;;;;;;28.67;13.98;;;;;;;7.01;100.00;100991.25;5018242;28;20046;-93
2022/03/18 07:59:20;;;;;;;29.52;13.55;;;;;;;7.06;100.00;101022.38;5021737;28;20224;-93
2022/03/18 08:01:49;;;;;;;27.70;13.35;;;;;;;7.01;100.00;101015.59;5022673;28;20050;-94
2022/03/18 08:04:16;;;;;;;28.40;15.77;;;;;;;7.04;100.00;100993.72;5022398;28;20122;-92
2022/03/18 08:06:43;;;;;;;29.08;14.70;;;;;;;7.22;100.00;101007.66;5020154;28;20133;-94
2022/03/18 08:09:10;;;;;;;27.77;13.63;;;;;;;7.13;100.00;101001.13;5020822;28;20073;-93
2022/03/18 08:11:37;;;;;;;33.30;14.70;;;;;;;7.34;100.00;101008.56;5021625;28;20121;-94
2022/03/18 08:14:07;;;;;;;28.83;15.30;;;;;;;7.43;100.00;101018.69;5021872;28;20408;-94
2022/03/18 08:16:33;;;;;;;33.38;14.55;;;;;;;7.35;100.00;101007.59;5021655;28;20133;-94
2022/03/18 08:19:02;;;;;;;33.85;14.85;;;;;;;7.37;100.00;101011.03;5021087;28;20073;-93
2022/03/18 08:21:32;;;;;;;31.50;13.38;;;;;;;7.38;100.00;101018.19;5021699;28;20068;-93
2022/03/18 08:23:59;;;;;;;31.45;15.18;;;;;;;7.44;100.00;101029.38;5021545;28;20057;-93
2022/03/18 08:26:28;;;;;;;29.08;15.52;;;;;;;7.52;100.00;101026.06;5022261;28;20053;-93
2022/03/18 08:28:55;;;;;;;33.80;16.27;;;;;;;7.65;100.00;101023.28;5022521;28;20056;-93
2022/03/18 08:31:22;;;;;;;34.42;17.05;;;;;;;7.78;100.00;101013.22;5021029;28;20113;-94
2022/03/18 08:33:49;;;;;;;34.35;15.80;;;;;;;7.86;100.00;101027.97;5020198;28;20465;-93
2022/03/18 08:36:17;;;;;;;33.15;18.30;;;;;;;7.97;100.00;101033.41;5021433;28;20060;-94
2022/03/18 08:38:44;;;;;;;36.28;17.80;;;;;;;7.91;97.90;101014.94;5022214;28;20080;-93
2022/03/18 08:41:12;;;;;;;38.38;19.15;;;;;;;7.94;97.37;101039.91;5019693;28;20064;-92
2022/03/18 08:43:38;;;;;;;33.88;16.45;;;;;;;7.97;99.42;101020.72;5039046;28;20054;-92
2022/03/18 08:46:05;;;;;;;38.03;17.63;;;;;;;8.12;99.65;101018.63;5039776;28;20068;-91
2022/03/18 08:48:32;;;;;;;35.55;18.23;;;;;;;8.32;99.71;101040.53;5037234;28;20134;-93
2022/03/18 08:50:59;;;;;;;37.30;17.15;;;;;;;8.59;100.00;101042.03;5026237;28;20054;-93
2022/03/18 08:53:28;;;;;;;31.45;16.35;;;;;;;8.88;98.56;101046.88;5022661;28;20490;-94
2022/03/18 08:55:56;;;;;;;32.00;17.52;;;;;;;8.97;94.93;101040.69;5021018;28;20504;-93
2022/03/18 08:58:24;;;;;;;34.03;17.08;;;;;;;9.09;94.10;101058.63;5020154;28;20116;-94
2022/03/18 09:00:51;;;;;;;35.63;17.10;;;;;;;9.11;91.08;101056.66;5019171;28;20081;-93
2022/03/18 09:03:18;;;;;;;35.05;16.92;;;;;;;9.21;91.91;101054.03;5018862;28;20060;-93
2022/03/18 09:05:45;;;;;;;32.30;17.38;;;;;;;9.08;92.11;101067.78;5019045;28;20395;-93
2022/03/18 09:08:13;;;;;;;35.28;16.80;;;;;;;9.04;91.79;101060.88;5018515;28;20378;-93
2022/03/18 09:10:41;;;;;;;31.33;16.92;;;;;;;9.01;89.52;101070.13;5019184;28;20058;-93
2022/03/18 09:13:08;;;;;;;31.92;15.82;;;;;;;9.17;91.71;101077.88;5017678;28;20137;-94
2022/03/18 09:15:35;;;;;;;34.35;17.05;;;;;;;9.13;90.42;101051.97;5017630;28;20048;-94
2022/03/18 09:18:02;;;;;;;36.00;17.60;;;;;;;9.36;89.73;101051.88;5009587;28;20516;-94
2022/03/18 09:20:29;;;;;;;38.58;18.27;;;;;;;9.39;90.02;101070.59;5017937;28;20049;-92
2022/03/18 09:22:56;;;;;;;38.20;19.00;;;;;;;9.48;87.97;101058.94;5017421;28;20058;-92
2022/03/18 09:25:23;;;;;;;34.28;18.15;;;;;;;9.61;85.87;101075.06;5017093;28;20129;-93
2022/03/18 09:27:52;;;;;;;35.92;18.27;;;;;;;9.07;86.37;101070.63;5017490;28;20116;-92
2022/03/18 09:30:19;;;;;;;30.13;15.52;;;;;;;8.78;89.27;101072.06;5018393;28;20049;-93
2022/03/18 09:32:45;;;;;;;40.17;17.55;;;;;;;9.01;87.91;101061.16;5016746;28;20124;-92
2022/03/18 09:35:15;;;;;;;36.47;17.98;;;;;;;9.34;87.69;101087.28;5027167;28;20841;-91
2022/03/18 09:37:41;;;;;;;35.40;17.87;;;;;;;9.43;87.98;101085.66;5013595;28;20070;-92
2022/03/18 09:40:09;;;;;;;37.50;18.55;;;;;;;9.54;86.69;101082.00;5017431;28;20644;-92
2022/03/18 09:42:37;;;;;;;35.35;17.88;;;;;;;9.37;88.00;101081.59;5016376;28;20497;-91
2022/03/18 09:45:10;;;;;;;36.13;18.60;;;;;;;9.35;86.90;101075.44;5016444;28;20057;-92
2022/03/18 09:47:37;;;;;;;33.20;16.88;;;;;;;9.52;85.97;101084.00;5013285;28;20060;-92
2022/03/18 09:50:04;;;;;;;35.80;15.02;;;;;;;9.53;85.45;101096.59;5015350;28;20470;-91
2022/03/18 09:52:31;;;;;;;36.17;19.15;;;;;;;9.75;82.78;101092.88;5014063;28;20478;-91
2022/03/18 09:54:57;;;;;;;37.28;19.95;;;;;;;9.62;85.79;101093.09;5015923;28;20064;-92
2022/03/18 09:57:24;;;;;;;36.80;20.13;;;;;;;9.50;81.47;101092.28;5016498;28;20056;-91
2022/03/18 09:59:51;;;;;;;42.13;20.75;;;;;;;9.25;86.28;101089.94;5015442;28;20045;-91
2022/03/18 10:02:29;;;;;;;42.53;20.92;;;;;;;9.27;86.92;101093.38;5017595;28;20045;-91
2022/03/18 10:04:58;;;;;;;45.22;21.23;;;;;;;9.27;85.07;101094.22;5028977;28;20045;-92
2022/03/18 10:07:25;;;;;;;38.05;22.20;;;;;;;9.37;84.71;101080.75;5014207;28;20053;-92
2022/03/18 10:10:05;;;;;;;41.33;21.73;;;;;;;9.36;83.92;101100.72;5013745;28;20503;-92
2022/03/18 10:12:34;;;;;;;42.55;20.50;;;;;;;9.29;82.91;101083.22;5014323;28;20049;-91
2022/03/18 10:15:10;;;;;;;37.30;20.48;;;;;;;9.18;83.95;101089.56;5015938;28;20053;-93
2022/03/18 10:17:44;;;;;;;34.03;17.08;;;;;;;9.16;84.92;101089.69;5015418;28;20054;-94
2022/03/18 10:20:24;;;;;;;39.85;21.50;;;;;;;9.58;84.17;101099.78;5012468;28;20419;-91
2022/03/18 10:22:51;;;;;;;37.15;20.40;;;;;;;9.66;82.07;101104.53;5012719;28;20051;-92
2022/03/18 10:25:34;;;;;;;37.40;20.55;;;;;;;9.62;82.19;101105.78;5012808;28;20060;-92
2022/03/18 10:28:00;;;;;;;37.50;21.25;;;;;;;9.71;84.64;101108.59;5013620;28;20069;-91
2022/03/18 10:30:28;;;;;;;43.15;22.05;;;;;;;9.84;81.53;101074.94;5013072;28;20050;-90
2022/03/18 10:32:56;;;;;;;39.88;21.13;;;;;;;9.87;83.72;101080.94;5031694;28;20064;-91
2022/03/18 10:38:15;;;;;;;38.67;21.40;;;;;;;9.92;81.59;101100.44;5026998;28;20060;-92
2022/03/18 10:40:41;;;;;;;35.85;20.95;;;;;;;9.85;79.18;101099.25;5012494;28;20477;-92
2022/03/18 10:43:08;;;;;;;39.22;22.23;;;;;;;9.58;81.02;101094.34;5013856;28;20050;-91
2022/03/18 10:45:35;;;;;;;40.70;20.10;;;;;;;9.53;80.51;101086.59;5016032;28;20135;-91
2022/03/18 10:48:13;;;;;;;39.53;21.90;;;;;;;9.54;83.46;101104.63;5013176;28;20054;-92
2022/03/18 10:50:40;;;;;;;42.78;21.27;;;;;;;9.57;82.02;101098.03;5012942;28;20064;-91
2022/03/18 10:53:11;;;;;;;39.75;20.75;;;;;;;9.43;80.20;101085.66;5012653;28;20141;-91
2022/03/18 10:55:39;;;;;;;35.20;20.45;;;;;;;9.49;81.82;101098.69;5013656;28;20054;-91
2022/03/18 10:58:10;;;;;;;42.60;21.20;;;;;;;9.62;80.65;101097.66;5014360;28;20049;-91
2022/03/18 11:00:38;;;;;;;41.80;18.27;;;;;;;9.74;79.70;101094.75;5015965;28;20053;-91
2022/03/18 11:03:06;;;;;;;35.03;18.75;;;;;;;9.80;80.40;101104.22;5015541;28;20049;-91
2022/03/18 11:05:36;;;;;;;34.70;19.88;;;;;;;9.74;78.76;101094.75;5016323;28;20050;-91
2022/03/18 11:08:05;;;;;;;35.58;19.33;;;;;;;9.82;78.85;101104.09;5017941;28;20132;-89
2022/03/18 11:13:22;;;;;;;39.40;20.50;;;;;;;9.95;78.51;101114.75;5025078;28;20401;-91
2022/03/18 11:15:50;;;;;;;37.70;20.92;;;;;;;9.85;78.24;101117.41;5016420;28;20046;-90
2022/03/18 11:18:19;;;;;;;41.45;21.42;;;;;;;9.92;78.93;101107.72;5016907;28;20049;-90
2022/03/18 11:20:51;;;;;;;33.30;18.13;;;;;;;9.97;77.36;101086.47;5016867;28;20145;-90
2022/03/18 11:23:19;;;;;;;41.15;21.52;;;;;;;10.14;78.17;101114.88;5016048;28;20073;-90
2022/03/18 11:25:48;;;;;;;37.92;20.67;;;;;;;10.23;79.17;101111.34;5016961;28;20056;-89
2022/03/18 11:28:16;;;;;;;43.25;19.58;;;;;;;10.44;75.79;101086.84;5016255;28;20054;-90
2022/03/18 11:30:44;;;;;;;41.50;20.17;;;;;;;10.50;75.75;101093.59;5016563;28;20070;-89
2022/03/18 11:33:19;;;;;;;36.13;20.00;;;;;;;10.72;78.10;101088.94;5015561;28;20144;-91